CYGE

Details ICAO CYGE
Name Golden Airport
Region Canada
Timezone America/Edmonton (UTC-6.0)
Plans Departing 7
Arriving 21
Stats Elevation 2,576 ft / 785 m (AMSL)
Location 51.299200° -116.982000°
Runways 1
Magnetic Variation 15.011° E
Sunrise 2019-05-23 11:47:51 UTC / 2019-05-23 05:47:51 Local
Sunset 2019-05-24 03:44:22 UTC / 2019-05-23 21:44:22 Local
Advertisement - Login to hide

Runways

ID Width Length Bearing (true/mag) Surface Threshold Overrun Markings Lighting
14 75 ft / 23 m 4,500 ft / 1,372 m 157.97° / 142.96° ASPHALT 0 ft / 0 m 0 ft / 0 m VISUAL
32 75 ft / 23 m 4,500 ft / 1,372 m 337.98° / 322.97° ASPHALT 0 ft / 0 m 0 ft / 0 m VISUAL

Map

Weather


0- 5 10 15 20 25 30 35+ Temperature / °C

Clouds and Precipitation
Forecast for 2019-05-23 18:00 UTC. Updated 4 hours ago

Ground ~20,000 ft ~40,000 ft Winds

METAR

CYGE 231900Z 00000KT 20SM -RA FEW018 SCT065 BKN130 BKN150 14/09 A3005 RMK SC2SC2AC2AS1 SLP185 DENSITY ALT 2900FT

TAF

Not found

Frequencies

Approach 132.35 MHz Vancouver Center
Recorded 122.37 MHz Pacific Radio
Unicom 122.80 MHz CTAF
Warning: Do not use this data for real-world aviation or navigation. No guarantee of current accuracy is given.